EHEH/EIN METAR and TAF weather

Enter ICAO airport designator
Station Type Date Time Source
EHEH METAR 2024/06/15 22:55 UTC NOAA

EHEH 152255Z AUTO 19006KT 9999 DZ FEW015CB OVC067 13/11 Q1006 BLU


Station Type Date Time Source
EHEH Decoded METAR 2024/06/15 22:55 UTC NOAA

Eindhoven, Netherlands (EHEH) 51-27N 005-25E 28M
Jun 15, 2024 - 06:55 PM EDT / 2024.06.15 2255 UTC
Wind: from the S (190 degrees) at 7 MPH (6 KT):0
Visibility: greater than 7 mile(s):0
Sky conditions: overcast
Weather: drizzle; Cumulonimbus clouds observed
Temperature: 55 F (13 C)
Dew Point: 51 F (11 C)
Relative Humidity: 87%
Pressure (altimeter): 29.71 in. Hg (1006 hPa)
ob: EHEH 152255Z AUTO 19006KT 9999 DZ FEW015CB OVC067 13/11 Q1006 BLU
cycle: 23

Station Type Date Time Source
EHEH TAF 2024/06/15 18:57 UTC NOAA